Aeroporto :
LOGIN :

Iscrizione | Disclaimer

   EN    FR    IT 

 










Sommario :    VFR   VFR Marginale   IFR   IFR Intensivo   IFR Molto Intensivo
Visibilità : 
Base nubi : 
>= 8 km
>= 3000ft
5 / 8 km
1000 / 3000 ft
1500m / 5 km
500 / 1000 ft
800 / 1500m
200 / 500 ft
< 800m
< 200 ft
Simboli :   Temporali  Nebbia  Neve Forte  Precipitazioni Forti  Vento > 20 kt
SIGMETs :   Varie  Temporali  Ghiacco  Turbolenza  Onda orograficha  Ceneri Vulcaniche






- Altitudine del aeroporto : 55 ft
- Codice IATA : DSA


EGCN - Robin Hood Doncaster Sheffield

ULTIMO METAR :
  • 212250Z 29008KT CAVOK 08/07 Q1039

METARs OBSOLETI :
  • 212220Z 29007KT 9999 FEW045 08/07 Q1039
  • 212150Z 29005KT 9999 SCT045 07/06 Q1039
  • 212120Z 29004KT 9999 BKN046 07/06 Q1039
  • 212050Z 29004KT CAVOK 06/05 Q1039
  • 212020Z 29005KT CAVOK 07/06 Q1039

TAF AMD TAF EGCN
Valido dal 21 a 16 ore il 22 a 12 ore UTC


211659Z 2116/2212 30009KT 9999 FEW025
TEMPO 2116/2212 7000
PROB30
TEMPO 2116/2121 BKN008
PROB30 2118/2209 4000 BR



MetMap, La meteo Aeronautica in un colpo d'occhio ! - Copyright ORBIFLY Dicembre 2007 - Disclaimer

ORBIFLY MET'MAP TEAM :

Programmazione e sviluppo : Alexandra Zaïnal
Concezione : Baudouin d'Aumeries
Aiuto per la programmazione : Marc-Olivier Méhu
Supporto tecnico e logistico : Manuel Goepfert
Aiuto per la traduzione : Arnaldo La Scala

Contatto : metmap@orbifly.com




FONTI E CREDITI :

   NOAA